KBIX/BIX METAR and TAF weather

Enter ICAO airport designator
Station Type Date Time Source
KBIX METAR 2019/06/24 22:56 UTC NOAA

KBIX 242256Z AUTO 25004KT 10SM CLR 30/21 A2995 RMK AO2 SLP145 T02950211


Station Type Date Time Source
KBIX Decoded METAR 2019/06/24 22:56 UTC NOAA

Keesler Air Force Base / Biloxi, MS, United States (KBIX) 30-25N 088-55W
Jun 24, 2019 - 06:56 PM EDT / 2019.06.24 2256 UTC
Wind: from the WSW (250 degrees) at 5 MPH (4 KT):0
Visibility: 10 mile(s):0
Sky conditions: clear
Temperature: 85.1 F (29.5 C)
Dew Point: 70.0 F (21.1 C)
Relative Humidity: 60%
Pressure (altimeter): 29.95 in. Hg (1014 hPa)
ob: KBIX 242256Z AUTO 25004KT 10SM CLR 30/21 A2995 RMK AO2 SLP145 T02950211
cycle: 23

Station Type Date Time Source
KBIX TAF 2019/06/24 18:09 UTC NOAA

TAF TAF KBIX 241800Z 2418/2524 23009KT 9999 FEW030 FEW150 QNH2995INS
TEMPO 2420/2423 VRB12G20KT 6000 SHRA VCTS BKN030CB BKN080
BECMG 2422/2423 22009KT 9999 FEW030 QNH2990INS
BECMG 2507/2508 21006KT 9999 SCT005 SCT010 QNH3000INS
TEMPO 2509/2513 VRB06KT BKN010 TX34/2420Z TN23/2511Z

Example: see airport list